Time,TemperatureF,DewpointF,PressureIn,WindDirection,WindDirectionDegrees,WindSpeedMPH,WindSpeedGustMPH,Humidity,HourlyPrecipIn,Conditions,Clouds,dailyrainin,SoftwareType,DateUTC
2013-04-17 00:00:00,62.6,56.3,30.12,South,186,1.0,1.0,80,0.00,,,0.00,Wunderground v.1.15,2013-04-17 04:00:00,
2013-04-17 00:05:00,62.7,56.4,30.12,SSW,210,1.0,1.0,80,0.00,,,0.00,Wunderground v.1.15,2013-04-17 04:05:00,
2013-04-17 00:10:00,62.8,56.5,30.12,South,184,1.0,3.0,80,0.00,,,0.00,Wunderground v.1.15,2013-04-17 04:10:00,
2013-04-17 00:15:00,62.8,56.5,30.12,SSW,194,1.0,3.0,80,0.00,,,0.00,Wunderground v.1.15,2013-04-17 04:15:00,
2013-04-17 00:25:00,62.6,56.3,30.12,SSW,205,1.0,4.0,80,0.00,,,0.00,Wunderground v.1.15,2013-04-17 04:25:00,
2013-04-17 00:30:00,62.5,56.6,30.12,South,191,1.0,1.0,81,0.00,,,0.00,Wunderground v.1.15,2013-04-17 04:30:00,
2013-04-17 00:40:00,62.3,56.4,30.12,SSW,198,1.0,2.0,81,0.00,,,0.00,Wunderground v.1.15,2013-04-17 04:40:00,
2013-04-17 00:45:00,62.3,56.4,30.12,South,190,1.0,2.0,81,0.00,,,0.00,Wunderground v.1.15,2013-04-17 04:45:00,
2013-04-17 00:50:00,62.2,56.3,30.12,South,190,0.0,0.0,81,0.00,,,0.00,Wunderground v.1.15,2013-04-17 04:50:00,
2013-04-17 01:01:00,62.1,56.5,30.12,South,190,0.0,0.0,82,0.00,,,0.00,Wunderground v.1.15,2013-04-17 05:01:00,
2013-04-17 01:10:00,61.9,56.3,30.12,South,190,0.0,0.0,82,0.00,,,0.00,Wunderground v.1.15,2013-04-17 05:10:00,
2013-04-17 01:16:00,61.8,56.2,30.13,South,190,0.0,0.0,82,0.00,,,0.00,Wunderground v.1.15,2013-04-17 05:16:00,
2013-04-17 01:25:00,61.7,56.5,30.13,South,190,0.0,0.0,83,0.00,,,0.00,Wunderground v.1.15,2013-04-17 05:25:00,
2013-04-17 01:31:00,61.7,56.5,30.13,South,190,0.0,0.0,83,0.00,,,0.00,Wunderground v.1.15,2013-04-17 05:31:00,
2013-04-17 01:40:00,61.5,56.6,30.13,South,190,0.0,0.0,84,0.00,,,0.00,Wunderground v.1.15,2013-04-17 05:40:00,
2013-04-17 01:50:00,61.4,56.5,30.13,South,190,0.0,0.0,84,0.00,,,0.00,Wunderground v.1.15,2013-04-17 05:50:00,
2013-04-17 02:01:00,61.3,56.4,30.13,South,190,0.0,0.0,84,0.00,,,0.00,Wunderground v.1.15,2013-04-17 06:01:00,
2013-04-17 02:10:00,61.2,56.7,30.13,South,190,0.0,0.0,85,0.00,,,0.00,Wunderground v.1.15,2013-04-17 06:10:00,
2013-04-17 02:16:00,61.1,56.6,30.12,South,190,0.0,0.0,85,0.00,,,0.00,Wunderground v.1.15,2013-04-17 06:16:00,
2013-04-17 02:25:00,61.1,56.6,30.12,South,190,0.0,0.0,85,0.00,,,0.00,Wunderground v.1.15,2013-04-17 06:25:00,
2013-04-17 02:35:00,61.0,56.8,30.12,South,190,0.0,0.0,86,0.00,,,0.00,Wunderground v.1.15,2013-04-17 06:35:00,
2013-04-17 02:46:00,60.8,57.2,30.12,South,190,0.0,0.0,88,0.00,,,0.00,Wunderground v.1.15,2013-04-17 06:46:00,
2013-04-17 02:55:00,60.5,57.6,30.12,South,190,0.0,0.0,90,0.00,,,0.00,Wunderground v.1.15,2013-04-17 06:55:00,
2013-04-17 03:00:00,60.1,57.5,30.12,South,190,0.0,0.0,91,0.00,,,0.00,Wunderground v.1.15,2013-04-17 07:00:00,
2013-04-17 03:10:00,59.8,57.5,30.12,South,190,0.0,0.0,92,0.00,,,0.00,Wunderground v.1.15,2013-04-17 07:10:00,
2013-04-17 03:16:00,59.7,57.7,30.12,South,190,0.0,0.0,93,0.00,,,0.00,Wunderground v.1.15,2013-04-17 07:16:00,
2013-04-17 03:25:00,59.6,57.6,30.13,South,190,0.0,0.0,93,0.00,,,0.00,Wunderground v.1.15,2013-04-17 07:25:00,
2013-04-17 03:31:00,59.6,57.6,30.12,South,190,0.0,0.0,93,0.00,,,0.00,Wunderground v.1.15,2013-04-17 07:31:00,
2013-04-17 03:40:00,59.4,57.4,30.12,South,190,0.0,0.0,93,0.00,,,0.00,Wunderground v.1.15,2013-04-17 07:40:00,
2013-04-17 03:45:00,59.4,57.7,30.12,South,190,0.0,0.0,94,0.00,,,0.00,Wunderground v.1.15,2013-04-17 07:45:00,
2013-04-17 03:55:00,59.3,57.6,30.13,NE,50,0.0,4.0,94,0.00,,,0.00,Wunderground v.1.15,2013-04-17 07:55:00,
2013-04-17 04:05:00,58.1,54.9,30.13,ENE,64,4.0,5.0,89,0.00,,,0.00,Wunderground v.1.15,2013-04-17 08:05:00,
2013-04-17 04:10:00,57.4,53.9,30.14,NE,55,5.0,5.0,88,0.00,,,0.00,Wunderground v.1.15,2013-04-17 08:10:00,
2013-04-17 04:15:00,56.8,53.3,30.14,NE,42,4.0,5.0,88,0.00,,,0.00,Wunderground v.1.15,2013-04-17 08:15:00,
2013-04-17 04:25:00,56.0,51.9,30.15,ENE,57,4.0,4.0,86,0.00,,,0.00,Wunderground v.1.15,2013-04-17 08:25:00,
2013-04-17 04:30:00,55.6,51.5,30.15,NE,46,4.0,4.0,86,0.00,,,0.00,Wunderground v.1.15,2013-04-17 08:30:00,
2013-04-17 04:40:00,55.0,51.5,30.14,ENE,60,3.0,5.0,88,0.00,,,0.00,Wunderground v.1.15,2013-04-17 08:40:00,
2013-04-17 04:45:00,54.8,51.3,30.14,ENE,57,3.0,5.0,88,0.00,,,0.00,Wunderground v.1.15,2013-04-17 08:45:00,
2013-04-17 04:55:00,54.4,51.2,30.14,ENE,61,1.0,2.0,89,0.00,,,0.00,Wunderground v.1.15,2013-04-17 08:55:00,
2013-04-17 05:01:00,54.1,50.6,30.14,ENE,73,2.0,2.0,88,0.00,,,0.00,Wunderground v.1.15,2013-04-17 09:01:00,
2013-04-17 05:10:00,53.4,49.3,30.14,East,85,2.0,2.0,86,0.00,,,0.00,Wunderground v.1.15,2013-04-17 09:10:00,
2013-04-17 05:16:00,53.1,49.0,30.14,ENE,63,2.0,3.0,86,0.00,,,0.00,Wunderground v.1.15,2013-04-17 09:16:00,
2013-04-17 05:25:00,52.9,48.2,30.14,North,5,2.0,2.0,84,0.00,,,0.00,Wunderground v.1.15,2013-04-17 09:25:00,
2013-04-17 05:31:00,52.9,48.2,30.15,ENE,60,2.0,2.0,84,0.00,,,0.00,Wunderground v.1.15,2013-04-17 09:31:00,
2013-04-17 05:40:00,53.0,47.7,30.15,ENE,59,3.0,3.0,82,0.00,,,0.00,Wunderground v.1.15,2013-04-17 09:40:00,
2013-04-17 05:46:00,53.0,47.7,30.15,NE,40,2.0,3.0,82,0.00,,,0.00,Wunderground v.1.15,2013-04-17 09:46:00,
2013-04-17 05:55:00,53.0,47.3,30.16,NE,53,2.0,4.0,81,0.00,,,0.00,Wunderground v.1.15,2013-04-17 09:55:00,
2013-04-17 06:01:00,53.0,47.3,30.17,ENE,58,2.0,2.0,81,0.00,,,0.00,Wunderground v.1.15,2013-04-17 10:01:00,
2013-04-17 06:10:00,53.0,47.3,30.17,NE,56,2.0,2.0,81,0.00,,,0.00,Wunderground v.1.15,2013-04-17 10:10:00,
2013-04-17 06:16:00,53.0,47.3,30.17,NE,51,1.0,2.0,81,0.00,,,0.00,Wunderground v.1.15,2013-04-17 10:16:00,
2013-04-17 06:25:00,53.0,47.7,30.18,NE,53,1.0,1.0,82,0.00,,,0.00,Wunderground v.1.15,2013-04-17 10:25:00,
2013-04-17 06:31:00,52.9,46.9,30.19,East,101,0.0,2.0,80,0.00,,,0.00,Wunderground v.1.15,2013-04-17 10:31:00,
2013-04-17 06:40:00,53.0,46.7,30.20,NNW,346,1.0,1.0,79,0.00,,,0.00,Wunderground v.1.15,2013-04-17 10:40:00,
2013-04-17 06:46:00,53.0,46.7,30.20,NE,49,1.0,1.0,79,0.00,,,0.00,Wunderground v.1.15,2013-04-17 10:46:00,
2013-04-17 06:55:00,53.1,46.4,30.20,NNE,24,1.0,2.0,78,0.00,,,0.00,Wunderground v.1.15,2013-04-17 10:55:00,
2013-04-17 07:05:00,53.2,46.5,30.21,East,86,1.0,2.0,78,0.00,,,0.00,Wunderground v.1.15,2013-04-17 11:05:00,
2013-04-17 07:10:00,53.2,46.5,30.22,NE,55,1.0,1.0,78,0.00,,,0.00,Wunderground v.1.15,2013-04-17 11:10:00,
2013-04-17 07:15:00,53.3,46.6,30.22,NE,51,1.0,3.0,78,0.00,,,0.00,Wunderground v.1.15,2013-04-17 11:15:00,
2013-04-17 07:25:00,53.3,46.6,30.23,NE,49,1.0,2.0,78,0.00,,,0.00,Wunderground v.1.15,2013-04-17 11:25:00,
2013-04-17 07:35:00,53.3,46.3,30.23,NE,54,2.0,3.0,77,0.00,,,0.00,Wunderground v.1.15,2013-04-17 11:35:00,
2013-04-17 07:45:00,53.3,46.6,30.24,ENE,58,2.0,3.0,78,0.00,,,0.00,Wunderground v.1.15,2013-04-17 11:45:00,
2013-04-17 07:55:00,53.3,45.9,30.24,ENE,57,2.0,3.0,76,0.00,,,0.00,Wunderground v.1.15,2013-04-17 11:55:00,
2013-04-17 08:00:00,53.2,45.5,30.25,ENE,71,3.0,3.0,75,0.00,,,0.00,Wunderground v.1.15,2013-04-17 12:00:00,
2013-04-17 08:10:00,53.2,45.1,30.24,NNE,29,2.0,2.0,74,0.00,,,0.00,Wunderground v.1.15,2013-04-17 12:10:00,
2013-04-17 08:16:00,53.1,43.9,30.24,NNE,31,3.0,3.0,71,0.00,,,0.00,Wunderground v.1.15,2013-04-17 12:16:00,
2013-04-17 08:25:00,53.1,43.6,30.24,North,5,3.0,3.0,70,0.00,,,0.00,Wunderground v.1.15,2013-04-17 12:25:00,
2013-04-17 08:31:00,53.1,43.6,30.25,North,9,2.0,6.0,70,0.00,,,0.00,Wunderground v.1.15,2013-04-17 12:31:00,
2013-04-17 08:40:00,53.2,42.5,30.24,North,11,3.0,3.0,67,0.00,,,0.00,Wunderground v.1.15,2013-04-17 12:40:00,
2013-04-17 08:46:00,53.2,42.5,30.24,NNE,25,3.0,3.0,67,0.00,,,0.00,Wunderground v.1.15,2013-04-17 12:46:00,
2013-04-17 08:55:00,53.4,42.3,30.24,NNE,12,1.0,3.0,66,0.00,,,0.00,Wunderground v.1.15,2013-04-17 12:55:00,
2013-04-17 09:01:00,53.5,42.0,30.24,NNE,29,1.0,2.0,65,0.00,,,0.00,Wunderground v.1.15,2013-04-17 13:01:00,
2013-04-17 09:10:00,53.7,42.6,30.25,NNE,18,1.0,1.0,66,0.00,,,0.00,Wunderground v.1.15,2013-04-17 13:10:00,
2013-04-17 09:16:00,53.9,40.8,30.24,North,10,1.0,3.0,61,0.00,,,0.00,Wunderground v.1.15,2013-04-17 13:16:00,
2013-04-17 09:25:00,54.3,41.1,30.25,ENE,59,3.0,6.0,61,0.00,,,0.00,Wunderground v.1.15,2013-04-17 13:25:00,
2013-04-17 09:31:00,54.5,39.6,30.24,NE,53,2.0,2.0,57,0.00,,,0.00,Wunderground v.1.15,2013-04-17 13:31:00,
2013-04-17 09:40:00,55.0,38.2,30.24,NE,51,3.0,3.0,53,0.00,,,0.00,Wunderground v.1.15,2013-04-17 13:40:00,
2013-04-17 09:46:00,55.5,38.1,30.24,NE,49,2.0,3.0,52,0.00,,,0.00,Wunderground v.1.15,2013-04-17 13:46:00,
2013-04-17 09:55:00,56.9,38.9,30.25,NNE,13,2.0,4.0,51,0.00,,,0.00,Wunderground v.1.15,2013-04-17 13:55:00,
2013-04-17 10:01:00,57.3,38.3,30.25,ENE,61,4.0,7.0,49,0.00,,,0.00,Wunderground v.1.15,2013-04-17 14:01:00,
2013-04-17 10:10:00,58.2,39.6,30.24,ENE,63,4.0,5.0,50,0.00,,,0.00,Wunderground v.1.15,2013-04-17 14:10:00,
2013-04-17 10:16:00,58.9,39.2,30.24,ENE,71,3.0,5.0,48,0.00,,,0.00,Wunderground v.1.15,2013-04-17 14:16:00,
2013-04-17 10:25:00,59.9,37.9,30.24,ENE,64,2.0,3.0,44,0.00,,,0.00,Wunderground v.1.15,2013-04-17 14:25:00,
2013-04-17 10:31:00,60.2,38.8,30.25,East,101,1.0,2.0,45,0.00,,,0.00,Wunderground v.1.15,2013-04-17 14:31:00,
2013-04-17 10:40:00,60.3,36.5,30.25,North,10,2.0,2.0,41,0.00,,,0.00,Wunderground v.1.15,2013-04-17 14:40:00,
2013-04-17 10:50:00,59.6,37.1,30.24,NNE,13,3.0,3.0,43,0.00,,,0.00,Wunderground v.1.15,2013-04-17 14:50:00,
2013-04-17 11:01:00,60.6,36.8,30.24,West,281,2.0,3.0,41,0.00,,,0.00,Wunderground v.1.15,2013-04-17 15:01:00,
2013-04-17 11:10:00,60.4,37.8,30.23,NE,34,3.0,3.0,43,0.00,,,0.00,Wunderground v.1.15,2013-04-17 15:10:00,
2013-04-17 11:16:00,60.7,35.6,30.23,NW,325,4.0,4.0,39,0.00,,,0.00,Wunderground v.1.15,2013-04-17 15:16:00,
2013-04-17 11:25:00,61.8,36.6,30.23,East,79,2.0,3.0,39,0.00,,,0.00,Wunderground v.1.15,2013-04-17 15:25:00,
2013-04-17 11:31:00,61.6,35.7,30.23,West,261,3.0,4.0,38,0.00,,,0.00,Wunderground v.1.15,2013-04-17 15:31:00,
2013-04-17 11:40:00,62.5,36.5,30.23,North,11,2.0,4.0,38,0.00,,,0.00,Wunderground v.1.15,2013-04-17 15:40:00,
2013-04-17 11:46:00,62.6,35.9,30.23,NE,44,3.0,5.0,37,0.00,,,0.00,Wunderground v.1.15,2013-04-17 15:46:00,
2013-04-17 11:55:00,62.9,34.1,30.23,NE,51,3.0,8.0,34,0.00,,,0.00,Wunderground v.1.15,2013-04-17 15:55:00,
2013-04-17 12:01:00,62.4,32.9,30.23,ENE,59,3.0,7.0,33,0.00,,,0.00,Wunderground v.1.15,2013-04-17 16:01:00,
2013-04-17 12:10:00,63.3,34.4,30.23,North,355,3.0,4.0,34,0.00,,,0.00,Wunderground v.1.15,2013-04-17 16:10:00,
2013-04-17 12:15:00,63.0,36.3,30.23,ENE,74,3.0,4.0,37,0.00,,,0.00,Wunderground v.1.15,2013-04-17 16:15:00,
2013-04-17 12:25:00,63.5,36.7,30.22,NNE,28,3.0,4.0,37,0.00,,,0.00,Wunderground v.1.15,2013-04-17 16:25:00,
2013-04-17 12:30:00,64.0,35.8,30.22,NW,322,2.0,2.0,35,0.00,,,0.00,Wunderground v.1.15,2013-04-17 16:30:00,
2013-04-17 12:40:00,64.2,35.2,30.22,North,355,3.0,3.0,34,0.00,,,0.00,Wunderground v.1.15,2013-04-17 16:40:00,
2013-04-17 12:50:00,64.9,38.0,30.21,ENE,67,2.0,8.0,37,0.00,,,0.00,Wunderground v.1.15,2013-04-17 16:50:00,
2013-04-17 13:01:00,64.9,34.3,30.21,ESE,121,3.0,3.0,32,0.00,,,0.00,Wunderground v.1.15,2013-04-17 17:01:00,
2013-04-17 13:10:00,65.9,35.2,30.21,ENE,62,1.0,4.0,32,0.00,,,0.00,Wunderground v.1.15,2013-04-17 17:10:00,
2013-04-17 13:16:00,67.1,35.4,30.21,South,172,1.0,4.0,31,0.00,,,0.00,Wunderground v.1.15,2013-04-17 17:16:00,
2013-04-17 13:25:00,68.9,36.2,30.21,NE,35,1.0,4.0,30,0.00,,,0.00,Wunderground v.1.15,2013-04-17 17:25:00,
2013-04-17 13:31:00,69.1,37.2,30.21,NNE,28,1.0,1.0,31,0.00,,,0.00,Wunderground v.1.15,2013-04-17 17:31:00,
2013-04-17 13:40:00,68.9,35.3,30.21,ENE,64,1.0,1.0,29,0.00,,,0.00,Wunderground v.1.15,2013-04-17 17:40:00,
2013-04-17 13:46:00,68.5,35.0,30.22,NNE,27,2.0,2.0,29,0.00,,,0.00,Wunderground v.1.15,2013-04-17 17:46:00,
2013-04-17 13:55:00,68.4,38.2,30.21,NNE,32,1.0,2.0,33,0.00,,,0.00,Wunderground v.1.15,2013-04-17 17:55:00,
2013-04-17 14:01:00,68.4,34.9,30.21,ENE,78,1.0,2.0,29,0.00,,,0.00,Wunderground v.1.15,2013-04-17 18:01:00,
2013-04-17 14:10:00,69.5,34.0,30.21,WSW,251,2.0,4.0,27,0.00,,,0.00,Wunderground v.1.15,2013-04-17 18:10:00,
2013-04-17 14:15:00,70.0,34.5,30.21,North,5,2.0,4.0,27,0.00,,,0.00,Wunderground v.1.15,2013-04-17 18:15:00,
2013-04-17 14:25:00,69.6,34.1,30.21,ENE,72,2.0,4.0,27,0.00,,,0.00,Wunderground v.1.15,2013-04-17 18:25:00,
2013-04-17 14:31:00,68.4,35.7,30.20,West,273,3.0,3.0,30,0.00,,,0.00,Wunderground v.1.15,2013-04-17 18:31:00,
2013-04-17 14:40:00,70.2,35.5,30.20,East,79,1.0,1.0,28,0.00,,,0.00,Wunderground v.1.15,2013-04-17 18:40:00,
2013-04-17 14:46:00,70.4,33.9,30.20,North,355,2.0,2.0,26,0.00,,,0.00,Wunderground v.1.15,2013-04-17 18:46:00,
2013-04-17 14:55:00,70.6,36.8,30.19,NE,56,2.0,5.0,29,0.00,,,0.00,Wunderground v.1.15,2013-04-17 18:55:00,
2013-04-17 15:00:00,70.1,34.5,30.19,NE,34,2.0,3.0,27,0.00,,,0.00,Wunderground v.1.15,2013-04-17 19:00:00,
2013-04-17 15:10:00,69.6,33.2,30.19,WNW,283,2.0,2.0,26,0.00,,,0.00,Wunderground v.1.15,2013-04-17 19:10:00,
2013-04-17 15:16:00,70.1,32.6,30.19,NNW,347,2.0,2.0,25,0.00,,,0.00,Wunderground v.1.15,2013-04-17 19:16:00,
2013-04-17 15:25:00,71.0,33.4,30.19,NE,48,1.0,1.0,25,0.00,,,0.00,Wunderground v.1.15,2013-04-17 19:25:00,
2013-04-17 15:31:00,70.8,33.2,30.19,NE,53,1.0,3.0,25,0.00,,,0.00,Wunderground v.1.15,2013-04-17 19:31:00,
2013-04-17 15:40:00,70.5,33.9,30.19,West,276,2.0,2.0,26,0.00,,,0.00,Wunderground v.1.15,2013-04-17 19:40:00,
2013-04-17 15:46:00,71.1,33.5,30.19,NW,304,1.0,2.0,25,0.00,,,0.00,Wunderground v.1.15,2013-04-17 19:46:00,
2013-04-17 15:55:00,71.1,33.5,30.19,West,277,1.0,2.0,25,0.00,,,0.00,Wunderground v.1.15,2013-04-17 19:55:00,
2013-04-17 16:01:00,71.2,33.6,30.19,North,349,1.0,1.0,25,0.00,,,0.00,Wunderground v.1.15,2013-04-17 20:01:00,
2013-04-17 16:10:00,71.0,32.4,30.19,NE,46,1.0,4.0,24,0.00,,,0.00,Wunderground v.1.15,2013-04-17 20:10:00,
2013-04-17 16:16:00,70.3,32.8,30.18,ENE,57,2.0,4.0,25,0.00,,,0.00,Wunderground v.1.15,2013-04-17 20:16:00,
2013-04-17 16:25:00,69.9,33.4,30.18,NE,42,3.0,3.0,26,0.00,,,0.00,Wunderground v.1.15,2013-04-17 20:25:00,
2013-04-17 16:31:00,70.1,32.6,30.18,ENE,66,2.0,4.0,25,0.00,,,0.00,Wunderground v.1.15,2013-04-17 20:31:00,
2013-04-17 16:40:00,70.2,33.7,30.18,SE,128,2.0,2.0,26,0.00,,,0.00,Wunderground v.1.15,2013-04-17 20:40:00,
2013-04-17 16:46:00,70.4,33.9,30.18,NNE,13,1.0,2.0,26,0.00,,,0.00,Wunderground v.1.15,2013-04-17 20:46:00,
2013-04-17 16:55:00,71.1,32.5,30.19,NNE,13,1.0,2.0,24,0.00,,,0.00,Wunderground v.1.15,2013-04-17 20:55:00,
2013-04-17 17:01:00,70.8,33.2,30.18,NE,51,2.0,4.0,25,0.00,,,0.00,Wunderground v.1.15,2013-04-17 21:01:00,
2013-04-17 17:10:00,70.2,33.7,30.19,East,85,2.0,2.0,26,0.00,,,0.00,Wunderground v.1.15,2013-04-17 21:10:00,
2013-04-17 17:16:00,70.4,33.9,30.19,NE,53,1.0,2.0,26,0.00,,,0.00,Wunderground v.1.15,2013-04-17 21:16:00,
2013-04-17 17:25:00,70.2,34.6,30.19,NNE,19,2.0,3.0,27,0.00,,,0.00,Wunderground v.1.15,2013-04-17 21:25:00,
2013-04-17 17:31:00,70.2,33.7,30.19,ENE,59,2.0,2.0,26,0.00,,,0.00,Wunderground v.1.15,2013-04-17 21:31:00,
2013-04-17 17:40:00,70.8,33.2,30.19,SE,140,0.0,0.0,25,0.00,,,0.00,Wunderground v.1.15,2013-04-17 21:40:00,
2013-04-17 17:46:00,71.0,34.4,30.19,East,85,0.0,1.0,26,0.00,,,0.00,Wunderground v.1.15,2013-04-17 21:46:00,
2013-04-17 17:55:00,70.4,32.9,30.19,NE,55,2.0,2.0,25,0.00,,,0.00,Wunderground v.1.15,2013-04-17 21:55:00,
2013-04-17 18:01:00,70.0,32.5,30.19,NE,46,2.0,2.0,25,0.00,,,0.00,Wunderground v.1.15,2013-04-17 22:01:00,
2013-04-17 18:10:00,69.6,33.2,30.19,NE,52,2.0,2.0,26,0.00,,,0.00,Wunderground v.1.15,2013-04-17 22:10:00,
2013-04-17 18:16:00,69.6,33.2,30.19,ENE,66,2.0,2.0,26,0.00,,,0.00,Wunderground v.1.15,2013-04-17 22:16:00,
2013-04-17 18:25:00,69.5,34.9,30.19,NE,39,1.0,4.0,28,0.00,,,0.00,Wunderground v.1.15,2013-04-17 22:25:00,
2013-04-17 18:31:00,69.4,34.9,30.19,East,96,2.0,2.0,28,0.00,,,0.00,Wunderground v.1.15,2013-04-17 22:31:00,
2013-04-17 18:40:00,69.0,35.4,30.20,East,80,1.0,1.0,29,0.00,,,0.00,Wunderground v.1.15,2013-04-17 22:40:00,
2013-04-17 18:46:00,68.7,36.0,30.20,East,84,2.0,2.0,30,0.00,,,0.00,Wunderground v.1.15,2013-04-17 22:46:00,
2013-04-17 18:55:00,68.3,34.8,30.20,NE,44,1.0,1.0,29,0.00,,,0.00,Wunderground v.1.15,2013-04-17 22:55:00,
2013-04-17 19:01:00,68.0,33.7,30.20,East,86,1.0,1.0,28,0.00,,,0.00,Wunderground v.1.15,2013-04-17 23:01:00,
2013-04-17 19:10:00,67.6,34.2,30.20,ENE,65,1.0,1.0,29,0.00,,,0.00,Wunderground v.1.15,2013-04-17 23:10:00,
2013-04-17 19:16:00,67.4,35.7,30.20,ENE,65,1.0,1.0,31,0.00,,,0.00,Wunderground v.1.15,2013-04-17 23:16:00,
2013-04-17 19:25:00,67.0,35.3,30.20,East,91,0.0,0.0,31,0.00,,,0.00,Wunderground v.1.15,2013-04-17 23:25:00,
2013-04-17 19:31:00,66.8,36.0,30.21,East,91,0.0,0.0,32,0.00,,,0.00,Wunderground v.1.15,2013-04-17 23:31:00,
2013-04-17 19:40:00,66.1,35.4,30.21,East,91,0.0,0.0,32,0.00,,,0.00,Wunderground v.1.15,2013-04-17 23:40:00,
2013-04-17 19:46:00,65.8,35.9,30.21,East,91,0.0,0.0,33,0.00,,,0.00,Wunderground v.1.15,2013-04-17 23:46:00,
2013-04-17 19:55:00,64.9,37.3,30.21,East,91,0.0,0.0,36,0.00,,,0.00,Wunderground v.1.15,2013-04-17 23:55:00,
2013-04-17 20:01:00,64.1,37.3,30.21,East,91,0.0,0.0,37,0.00,,,0.00,Wunderground v.1.15,2013-04-18 00:01:00,
2013-04-17 20:10:00,63.4,36.7,30.22,East,91,0.0,1.0,37,0.00,,,0.00,Wunderground v.1.15,2013-04-18 00:10:00,
2013-04-17 20:16:00,63.1,36.4,30.22,East,79,0.0,1.0,37,0.00,,,0.00,Wunderground v.1.15,2013-04-18 00:16:00,
2013-04-17 20:25:00,62.9,36.9,30.22,East,79,0.0,0.0,38,0.00,,,0.00,Wunderground v.1.15,2013-04-18 00:25:00,
2013-04-17 20:31:00,62.7,36.7,30.22,East,79,0.0,0.0,38,0.00,,,0.00,Wunderground v.1.15,2013-04-18 00:31:00,
2013-04-17 20:40:00,62.1,37.5,30.23,East,79,0.0,0.0,40,0.00,,,0.00,Wunderground v.1.15,2013-04-18 00:40:00,
2013-04-17 20:46:00,61.7,37.1,30.24,East,79,0.0,0.0,40,0.00,,,0.00,Wunderground v.1.15,2013-04-18 00:46:00,
2013-04-17 20:55:00,60.9,39.4,30.24,East,79,0.0,0.0,45,0.00,,,0.00,Wunderground v.1.15,2013-04-18 00:55:00,
2013-04-17 21:01:00,60.1,38.1,30.24,East,79,0.0,0.0,44,0.00,,,0.00,Wunderground v.1.15,2013-04-18 01:01:00,
2013-04-17 21:10:00,59.0,39.9,30.25,East,79,0.0,0.0,49,0.00,,,0.00,Wunderground v.1.15,2013-04-18 01:10:00,
2013-04-17 21:16:00,58.4,41.3,30.25,East,79,0.0,0.0,53,0.00,,,0.00,Wunderground v.1.15,2013-04-18 01:16:00,
2013-04-17 21:25:00,57.0,39.0,30.25,East,79,0.0,0.0,51,0.00,,,0.00,Wunderground v.1.15,2013-04-18 01:25:00,
2013-04-17 21:35:00,56.2,37.8,30.25,East,79,0.0,0.0,50,0.00,,,0.00,Wunderground v.1.15,2013-04-18 01:35:00,
2013-04-17 21:40:00,55.9,40.0,30.25,East,79,0.0,0.0,55,0.00,,,0.00,Wunderground v.1.15,2013-04-18 01:40:00,
2013-04-17 21:50:00,55.0,40.5,30.25,East,79,0.0,0.0,58,0.00,,,0.00,Wunderground v.1.15,2013-04-18 01:50:00,
2013-04-17 22:01:00,53.9,40.3,30.25,East,79,0.0,0.0,60,0.00,,,0.00,Wunderground v.1.15,2013-04-18 02:01:00,
2013-04-17 22:10:00,53.4,40.7,30.25,East,96,0.0,0.0,62,0.00,,,0.00,Wunderground v.1.15,2013-04-18 02:10:00,
2013-04-17 22:16:00,53.1,40.0,30.25,East,96,0.0,0.0,61,0.00,,,0.00,Wunderground v.1.15,2013-04-18 02:16:00,
2013-04-17 22:25:00,53.0,40.3,30.25,East,96,0.0,0.0,62,0.00,,,0.00,Wunderground v.1.15,2013-04-18 02:25:00,
2013-04-17 22:31:00,52.6,41.2,30.25,East,96,0.0,0.0,65,0.00,,,0.00,Wunderground v.1.15,2013-04-18 02:31:00,
2013-04-17 22:40:00,52.1,41.5,30.26,East,96,0.0,0.0,67,0.00,,,0.00,Wunderground v.1.15,2013-04-18 02:40:00,
2013-04-17 22:46:00,51.9,42.0,30.26,East,96,0.0,0.0,69,0.00,,,0.00,Wunderground v.1.15,2013-04-18 02:46:00,
2013-04-17 22:55:00,51.5,42.0,30.26,East,85,0.0,0.0,70,0.00,,,0.00,Wunderground v.1.15,2013-04-18 02:55:00,
2013-04-17 23:01:00,51.3,42.2,30.26,East,85,0.0,0.0,71,0.00,,,0.00,Wunderground v.1.15,2013-04-18 03:01:00,
2013-04-17 23:10:00,51.2,41.7,30.27,East,85,0.0,0.0,70,0.00,,,0.00,Wunderground v.1.15,2013-04-18 03:10:00,
2013-04-17 23:16:00,51.0,41.9,30.27,East,85,0.0,0.0,71,0.00,,,0.00,Wunderground v.1.15,2013-04-18 03:16:00,
2013-04-17 23:25:00,50.4,42.1,30.27,East,85,0.0,0.0,73,0.00,,,0.00,Wunderground v.1.15,2013-04-18 03:25:00,
2013-04-17 23:31:00,50.2,42.2,30.27,East,85,0.0,0.0,74,0.00,,,0.00,Wunderground v.1.15,2013-04-18 03:31:00,
2013-04-17 23:40:00,49.9,41.9,30.28,East,85,0.0,1.0,74,0.00,,,0.00,Wunderground v.1.15,2013-04-18 03:40:00,
2013-04-17 23:46:00,49.6,42.0,30.28,East,85,1.0,1.0,75,0.00,,,0.00,Wunderground v.1.15,2013-04-18 03:46:00,
2013-04-17 23:55:00,49.5,42.2,30.28,East,85,0.0,0.0,76,0.00,,,0.00,Wunderground v.1.15,2013-04-18 03:55:00,